Time;durP1;ratioP1;P1;durP2;ratioP2;P2;SDS_P1;SDS_P2;PMS_P1;PMS_P2;Temp;Humidity;BMP_temperature;BMP_pressure;BME280_temperature;BME280_humidity;BME280_pressure;Samples;Min_cycle;Max_cycle;Signal;HPM_P1;HPM_P2
2022/07/01 00:01:42;;;;;;;4.60;1.67;;;11.50;90.20;;;;;;5036823;28;20066;-67
2022/07/01 00:04:09;;;;;;;9.35;1.85;;;11.60;90.00;;;;;;5034821;28;20025;-67
2022/07/01 00:06:37;;;;;;;6.18;2.42;;;11.60;88.60;;;;;;5048315;28;20035;-67
2022/07/01 00:09:05;;;;;;;4.05;1.73;;;11.70;88.50;;;;;;5035548;28;20456;-67
2022/07/01 00:11:33;;;;;;;6.30;1.90;;;11.70;87.30;;;;;;5052700;28;20029;-66
2022/07/01 00:14:00;;;;;;;4.53;2.13;;;11.80;87.40;;;;;;5050973;28;20028;-66
2022/07/01 00:16:27;;;;;;;3.42;1.50;;;11.80;87.50;;;;;;5046953;28;20055;-66
2022/07/01 00:18:54;;;;;;;3.22;1.20;;;11.80;87.40;;;;;;5032192;28;20029;-66
2022/07/01 00:21:22;;;;;;;5.03;2.40;;;11.80;85.90;;;;;;5046698;28;20029;-66
2022/07/01 00:23:49;;;;;;;3.05;1.63;;;11.90;86.20;;;;;;5034649;28;20029;-67
2022/07/01 00:26:16;;;;;;;5.80;1.83;;;12.00;87.90;;;;;;5046660;28;20025;-66
2022/07/01 00:28:43;;;;;;;2.30;1.60;;;12.00;85.50;;;;;;5044219;28;20044;-67
2022/07/01 00:31:10;;;;;;;2.97;1.50;;;12.00;83.90;;;;;;5042034;28;20385;-65
2022/07/01 00:33:38;;;;;;;2.97;1.40;;;12.10;85.00;;;;;;5038243;28;20129;-62
2022/07/01 00:36:05;;;;;;;3.65;1.65;;;12.20;86.30;;;;;;5048571;28;20029;-61
2022/07/01 00:38:32;;;;;;;4.40;1.52;;;12.30;83.70;;;;;;5040468;28;20029;-62
2022/07/01 00:41:00;;;;;;;5.03;1.90;;;12.40;84.00;;;;;;5032049;28;20029;-62
2022/07/01 00:43:27;;;;;;;2.28;1.25;;;12.40;85.20;;;;;;5033667;28;20032;-62
2022/07/01 00:45:54;;;;;;;10.55;2.75;;;12.40;83.70;;;;;;5031994;28;20033;-62
2022/07/01 00:48:22;;;;;;;10.70;2.05;;;12.40;82.80;;;;;;5031383;28;20029;-62
2022/07/01 00:50:50;;;;;;;5.60;1.75;;;12.40;83.40;;;;;;5043651;28;20029;-62
2022/07/01 00:53:18;;;;;;;3.10;1.88;;;12.50;82.90;;;;;;5042111;28;20032;-62
2022/07/01 00:55:45;;;;;;;4.20;1.60;;;12.50;81.90;;;;;;5045596;28;20033;-62
2022/07/01 00:58:12;;;;;;;5.55;1.55;;;12.50;82.90;;;;;;5031651;28;20017;-62
2022/07/01 01:00:39;;;;;;;6.72;1.88;;;12.50;81.80;;;;;;5033091;28;20043;-62
2022/07/01 01:03:10;;;;;;;8.77;3.00;;;12.40;83.70;;;;;;5046285;28;20025;-62
2022/07/01 01:05:38;;;;;;;4.78;1.77;;;12.40;82.20;;;;;;5049075;28;20018;-62
2022/07/01 01:08:10;;;;;;;4.60;1.67;;;12.30;83.20;;;;;;5045793;28;20026;-62
2022/07/01 01:10:38;;;;;;;5.75;1.80;;;12.20;84.50;;;;;;5035267;28;20029;-61
2022/07/01 01:13:05;;;;;;;5.53;1.90;;;12.20;84.70;;;;;;5045786;28;20024;-62
2022/07/01 01:15:33;;;;;;;4.82;1.67;;;12.20;84.20;;;;;;5047837;28;20078;-62
2022/07/01 01:18:00;;;;;;;7.85;2.17;;;12.30;84.40;;;;;;5044754;28;20075;-62
2022/07/01 01:20:32;;;;;;;6.40;1.98;;;12.40;84.70;;;;;;5037878;28;20024;-63
2022/07/01 01:23:00;;;;;;;4.35;1.48;;;12.40;82.70;;;;;;5058649;28;20539;-61
2022/07/01 01:25:27;;;;;;;9.60;2.28;;;12.40;84.20;;;;;;5060284;28;20470;-61
2022/07/01 01:27:55;;;;;;;4.50;1.60;;;12.50;83.30;;;;;;5042318;28;20465;-63
2022/07/01 01:30:22;;;;;;;4.70;2.10;;;12.50;83.20;;;;;;5046318;28;20028;-60
2022/07/01 01:32:49;;;;;;;4.90;1.30;;;12.50;82.70;;;;;;5050959;28;20030;-61
2022/07/01 01:35:17;;;;;;;4.00;1.70;;;12.50;83.40;;;;;;5040865;28;20032;-60
2022/07/01 01:37:44;;;;;;;4.90;1.63;;;12.50;82.80;;;;;;5047784;28;20030;-59
2022/07/01 01:40:13;;;;;;;4.78;1.40;;;12.40;83.40;;;;;;5033543;28;20032;-60
2022/07/01 01:42:42;;;;;;;2.83;1.27;;;12.40;82.80;;;;;;5046507;28;20033;-60
2022/07/01 01:45:10;;;;;;;3.20;1.33;;;12.40;83.00;;;;;;5054066;28;20017;-60
2022/07/01 01:47:37;;;;;;;3.75;1.70;;;12.40;83.00;;;;;;5054437;28;20021;-60
2022/07/01 01:50:07;;;;;;;6.00;1.58;;;12.30;83.30;;;;;;5062216;28;20025;-60
2022/07/01 01:52:34;;;;;;;2.28;1.38;;;12.40;84.80;;;;;;5049574;28;20024;-60
2022/07/01 01:55:02;;;;;;;3.00;1.48;;;12.30;83.80;;;;;;5043647;28;20029;-60
2022/07/01 01:57:30;;;;;;;4.43;1.30;;;12.40;84.50;;;;;;5050409;28;20025;-60
2022/07/01 01:59:57;;;;;;;2.42;1.10;;;12.30;84.10;;;;;;5042984;28;20025;-61
2022/07/01 02:02:24;;;;;;;3.30;1.77;;;12.40;85.00;;;;;;5041663;28;20093;-60
2022/07/01 02:04:52;;;;;;;8.85;1.40;;;12.40;85.30;;;;;;5049441;28;20100;-62
2022/07/01 02:07:19;;;;;;;5.32;2.20;;;12.40;85.10;;;;;;5043849;28;20029;-62
2022/07/01 02:09:46;;;;;;;5.65;1.17;;;12.50;84.30;;;;;;5043408;28;20071;-63
2022/07/01 02:12:13;;;;;;;6.25;2.00;;;12.50;84.60;;;;;;5037273;28;20021;-62
2022/07/01 02:14:41;;;;;;;6.97;1.70;;;12.50;84.60;;;;;;5055613;28;20036;-63
2022/07/01 02:17:08;;;;;;;4.75;1.40;;;12.50;85.00;;;;;;5050327;28;20127;-63
2022/07/01 02:19:35;;;;;;;5.97;1.60;;;12.60;84.40;;;;;;5044064;28;20025;-63
2022/07/01 02:22:02;;;;;;;3.17;1.13;;;12.60;84.70;;;;;;5055193;28;20559;-63
2022/07/01 02:24:30;;;;;;;8.73;1.50;;;12.60;83.60;;;;;;5063071;28;20021;-63
2022/07/01 02:26:57;;;;;;;4.45;1.73;;;12.60;85.40;;;;;;5044078;28;20030;-63
2022/07/01 02:29:24;;;;;;;2.38;1.20;;;12.50;84.30;;;;;;5048689;28;20017;-63
2022/07/01 02:31:51;;;;;;;4.45;1.80;;;12.60;84.50;;;;;;5051790;28;20070;-63
2022/07/01 02:34:18;;;;;;;5.38;1.60;;;12.50;86.50;;;;;;5066616;28;20096;-62
2022/07/01 02:36:46;;;;;;;2.83;1.25;;;12.60;87.10;;;;;;5056404;28;20099;-63
2022/07/01 02:39:13;;;;;;;12.07;1.50;;;12.50;88.50;;;;;;5059868;28;20028;-64
2022/07/01 02:44:25;;;;;;;3.08;1.70;;;12.30;87.30;;;;;;5037546;28;20427;-63
2022/07/01 02:46:53;;;;;;;4.32;1.70;;;12.20;89.00;;;;;;5040251;28;20483;-63
2022/07/01 02:49:20;;;;;;;3.20;1.40;;;12.20;89.70;;;;;;5031239;28;20025;-62
2022/07/01 02:51:47;;;;;;;4.03;1.55;;;12.20;90.50;;;;;;5058433;28;20577;-62
2022/07/01 02:54:14;;;;;;;7.30;4.18;;;12.20;90.60;;;;;;5066627;28;20024;-64
2022/07/01 02:56:42;;;;;;;3.75;1.77;;;12.20;90.30;;;;;;5055593;28;20106;-64
2022/07/01 02:59:09;;;;;;;4.35;1.95;;;12.20;90.50;;;;;;5060526;28;20067;-64
2022/07/01 03:01:36;;;;;;;3.58;2.08;;;12.20;90.80;;;;;;5051502;28;20041;-64
2022/07/01 03:04:03;;;;;;;5.45;2.08;;;12.10;90.90;;;;;;5058740;28;20028;-64
2022/07/01 03:06:31;;;;;;;5.68;1.75;;;12.10;91.50;;;;;;5065775;28;20036;-64
2022/07/01 03:08:58;;;;;;;3.03;1.80;;;12.10;91.00;;;;;;5050168;28;20734;-64
2022/07/01 03:11:28;;;;;;;4.72;1.90;;;12.10;91.50;;;;;;5050126;28;20208;-64
2022/07/01 03:13:55;;;;;;;7.88;1.70;;;12.10;91.70;;;;;;5058845;28;20039;-64
2022/07/01 03:16:22;;;;;;;2.00;1.10;;;12.10;91.80;;;;;;5057763;28;20099;-64
2022/07/01 03:18:50;;;;;;;5.95;1.90;;;12.00;91.50;;;;;;5045866;28;20112;-65
2022/07/01 03:21:17;;;;;;;3.53;1.60;;;12.10;91.90;;;;;;5046375;28;20040;-64
2022/07/01 03:23:44;;;;;;;4.18;2.10;;;12.10;92.20;;;;;;5035974;28;20063;-65
2022/07/01 03:26:11;;;;;;;7.65;2.05;;;12.20;92.10;;;;;;5048856;28;20021;-65
2022/07/01 03:28:39;;;;;;;10.43;2.92;;;12.20;92.00;;;;;;5060015;28;20070;-63
2022/07/01 03:31:06;;;;;;;7.93;1.98;;;12.20;91.70;;;;;;5039879;28;20030;-63
2022/07/01 03:33:33;;;;;;;3.92;1.40;;;12.20;91.20;;;;;;5040995;28;20067;-64
2022/07/01 03:36:00;;;;;;;6.55;1.50;;;12.20;89.00;;;;;;5046081;28;20026;-63
2022/07/01 03:38:28;;;;;;;3.08;1.10;;;12.20;89.10;;;;;;5050895;28;20049;-63
2022/07/01 03:40:55;;;;;;;2.95;1.20;;;12.20;88.60;;;;;;5052154;28;20116;-63
2022/07/01 03:43:22;;;;;;;2.15;1.08;;;12.10;88.40;;;;;;5049767;28;20093;-64
2022/07/01 03:45:49;;;;;;;6.07;0.98;;;12.10;88.30;;;;;;5051789;28;20031;-64
2022/07/01 03:48:16;;;;;;;5.25;1.02;;;12.00;89.10;;;;;;5054610;28;20017;-63
2022/07/01 03:50:44;;;;;;;6.10;1.10;;;12.00;88.90;;;;;;5054220;28;20465;-69
2022/07/01 03:55:57;;;;;;;4.68;0.90;;;11.90;88.50;;;;;;5060094;28;20028;-68
2022/07/01 03:58:24;;;;;;;2.28;0.95;;;11.90;87.90;;;;;;5043459;28;20025;-69
2022/07/01 04:00:51;;;;;;;2.08;0.85;;;11.90;89.10;;;;;;5042521;28;20025;-69
2022/07/01 04:03:18;;;;;;;4.72;1.13;;;11.90;89.10;;;;;;5050816;28;20056;-69
2022/07/01 04:05:46;;;;;;;5.25;1.40;;;11.90;87.80;;;;;;5034750;28;20034;-68
2022/07/01 04:08:14;;;;;;;3.38;1.20;;;11.80;89.00;;;;;;5050526;28;20033;-67
2022/07/01 04:10:42;;;;;;;3.83;1.08;;;11.80;90.10;;;;;;5041180;28;20358;-68
2022/07/01 04:13:09;;;;;;;9.85;1.30;;;11.70;90.00;;;;;;5048818;28;20100;-67
2022/07/01 04:15:37;;;;;;;7.32;1.02;;;11.80;90.70;;;;;;5050345;28;20033;-68
2022/07/01 04:18:04;;;;;;;5.53;2.47;;;11.80;90.50;;;;;;5051481;28;20025;-68
2022/07/01 04:20:31;;;;;;;6.40;2.42;;;11.70;90.60;;;;;;5068409;28;20032;-68
2022/07/01 04:22:58;;;;;;;3.42;0.93;;;11.70;90.80;;;;;;5050951;28;20473;-67
2022/07/01 04:25:29;;;;;;;3.78;1.55;;;11.70;90.20;;;;;;5044542;28;20030;-64
2022/07/01 04:27:57;;;;;;;3.63;1.10;;;11.70;90.90;;;;;;5047435;28;20470;-64
2022/07/01 04:30:25;;;;;;;3.65;0.93;;;11.70;90.80;;;;;;5048479;28;20033;-68
2022/07/01 04:32:52;;;;;;;2.28;0.90;;;11.70;91.10;;;;;;5041131;28;20025;-69
2022/07/01 04:35:19;;;;;;;3.90;1.10;;;11.60;90.50;;;;;;5037778;28;20390;-65
2022/07/01 04:37:46;;;;;;;3.47;1.60;;;11.60;90.50;;;;;;5056300;28;20024;-66
2022/07/01 04:40:14;;;;;;;4.55;1.25;;;11.50;91.00;;;;;;5068739;28;20028;-66
2022/07/01 04:42:41;;;;;;;5.72;1.23;;;11.50;91.60;;;;;;5057228;28;20031;-65
2022/07/01 04:45:10;;;;;;;3.30;1.40;;;11.40;91.60;;;;;;5063241;28;20091;-66
2022/07/01 04:47:37;;;;;;;4.03;1.52;;;11.40;91.70;;;;;;5043934;28;20028;-67
2022/07/01 04:50:04;;;;;;;8.73;1.63;;;11.40;92.30;;;;;;5044408;28;20104;-67
2022/07/01 04:52:32;;;;;;;4.40;1.50;;;11.40;92.50;;;;;;5048652;28;20165;-66
2022/07/01 04:54:59;;;;;;;3.40;1.35;;;11.30;92.90;;;;;;5061290;28;20115;-66
2022/07/01 04:57:26;;;;;;;4.47;2.63;;;11.30;92.60;;;;;;5058887;28;20020;-67
2022/07/01 04:59:53;;;;;;;3.75;0.93;;;11.30;92.80;;;;;;5042455;28;20024;-66
2022/07/01 05:02:20;;;;;;;3.00;1.33;;;11.30;92.90;;;;;;5065724;28;20120;-66
2022/07/01 05:04:48;;;;;;;3.10;1.65;;;11.30;93.10;;;;;;5043534;28;20575;-66
2022/07/01 05:07:31;;;;;;;2.72;0.90;;;11.30;93.20;;;;;;5051910;28;20033;-66
2022/07/01 05:10:01;;;;;;;5.30;1.67;;;11.30;93.30;;;;;;5048727;28;20040;-66
2022/07/01 05:12:28;;;;;;;6.22;2.05;;;11.20;93.80;;;;;;5046675;28;20473;-66
2022/07/01 05:14:55;;;;;;;5.78;1.55;;;11.20;94.10;;;;;;5066897;28;20029;-66
2022/07/01 05:21:55;;;;;;;7.68;1.52;;;11.20;94.30;;;;;;5044702;28;20044;-66
2022/07/01 05:23:09;;;;;;;4.57;2.05;;;11.10;94.30;;;;;;5049807;28;20433;-66
2022/07/01 05:25:37;;;;;;;3.40;1.70;;;11.10;94.70;;;;;;5058735;28;20107;-67
2022/07/01 05:28:04;;;;;;;2.47;1.63;;;11.00;94.80;;;;;;5050199;28;20022;-67
2022/07/01 05:30:31;;;;;;;4.55;2.20;;;11.00;95.10;;;;;;5043619;28;20025;-66
2022/07/01 05:32:58;;;;;;;5.57;2.40;;;11.00;95.30;;;;;;5044909;28;20025;-66
2022/07/01 05:35:26;;;;;;;4.40;2.15;;;11.00;95.30;;;;;;5063071;28;20040;-68
2022/07/01 05:37:53;;;;;;;4.40;1.75;;;11.00;95.50;;;;;;5055672;28;20381;-67
2022/07/01 05:40:20;;;;;;;3.42;1.70;;;10.90;95.30;;;;;;5039390;28;20028;-67
2022/07/01 05:42:47;;;;;;;3.83;1.40;;;10.90;95.30;;;;;;5059650;28;20387;-67
2022/07/01 05:45:14;;;;;;;4.13;1.83;;;10.90;95.50;;;;;;5040821;28;20033;-68
2022/07/01 05:47:42;;;;;;;5.25;1.90;;;10.80;95.70;;;;;;5053714;28;20021;-67
2022/07/01 05:50:09;;;;;;;5.10;2.22;;;10.80;95.70;;;;;;5055014;28;20036;-66
2022/07/01 05:52:37;;;;;;;4.13;2.35;;;10.70;95.80;;;;;;5053572;28;20028;-66
2022/07/01 05:55:04;;;;;;;3.65;2.78;;;10.70;96.10;;;;;;5050649;28;20059;-67
2022/07/01 05:57:31;;;;;;;4.57;3.53;;;10.70;96.50;;;;;;5038091;28;20025;-67
2022/07/01 05:59:58;;;;;;;7.82;3.50;;;10.70;96.60;;;;;;5051947;28;20135;-66
2022/07/01 06:02:26;;;;;;;9.23;3.97;;;10.70;96.70;;;;;;5045824;28;20036;-67
2022/07/01 06:04:53;;;;;;;6.40;3.22;;;10.60;96.80;;;;;;5045559;28;20028;-67
2022/07/01 06:07:21;;;;;;;6.97;3.80;;;10.60;96.80;;;;;;5062213;28;20104;-66
2022/07/01 06:09:48;;;;;;;5.50;3.05;;;10.60;97.00;;;;;;5043679;28;20541;-67
2022/07/01 06:12:15;;;;;;;3.42;2.70;;;10.60;97.10;;;;;;5038748;28;20047;-66
2022/07/01 06:14:43;;;;;;;7.13;4.72;;;10.60;97.10;;;;;;5049833;28;20025;-67
2022/07/01 06:17:13;;;;;;;8.15;5.60;;;10.60;97.20;;;;;;5044983;28;20386;-69
2022/07/01 06:19:41;;;;;;;7.90;3.30;;;10.50;97.20;;;;;;5057603;28;20021;-69
2022/07/01 06:22:08;;;;;;;4.80;3.10;;;10.50;97.30;;;;;;5067484;28;20039;-69
2022/07/01 06:24:38;;;;;;;4.90;3.13;;;10.50;97.40;;;;;;5056898;28;20097;-69
2022/07/01 06:27:05;;;;;;;7.63;3.25;;;10.50;97.50;;;;;;5053239;28;20048;-66
2022/07/01 06:29:33;;;;;;;12.23;3.83;;;10.50;97.60;;;;;;5046987;28;20087;-67
2022/07/01 06:32:00;;;;;;;8.93;3.60;;;10.50;97.50;;;;;;5041701;28;20036;-67
2022/07/01 06:34:27;;;;;;;5.97;3.22;;;10.50;97.50;;;;;;5050997;28;20075;-66
2022/07/01 06:36:55;;;;;;;5.13;3.22;;;10.50;97.60;;;;;;5044520;28;21541;-66
2022/07/01 06:39:23;;;;;;;5.65;3.55;;;10.50;97.70;;;;;;5041060;28;20063;-66
2022/07/01 06:41:50;;;;;;;9.25;3.05;;;10.50;97.70;;;;;;5033126;28;20478;-66
2022/07/01 06:44:17;;;;;;;7.10;3.95;;;10.40;97.60;;;;;;5033286;28;20037;-66
2022/07/01 06:46:45;;;;;;;7.78;2.78;;;10.40;97.70;;;;;;5037134;28;20029;-66
2022/07/01 06:49:12;;;;;;;7.53;3.58;;;10.50;97.80;;;;;;5037934;28;20056;-66
2022/07/01 06:51:40;;;;;;;3.97;2.53;;;10.40;97.60;;;;;;5059750;28;20035;-67
2022/07/01 06:54:07;;;;;;;6.15;3.30;;;10.40;97.60;;;;;;5059993;28;20036;-67
2022/07/01 06:56:35;;;;;;;4.72;2.75;;;10.40;97.60;;;;;;5051660;28;20016;-66
2022/07/01 06:59:02;;;;;;;8.75;4.05;;;10.30;97.40;;;;;;5059364;28;20037;-66
2022/07/01 07:01:29;;;;;;;8.48;3.25;;;10.30;97.70;;;;;;5054081;28;20036;-66
2022/07/01 07:03:57;;;;;;;4.45;2.72;;;10.30;97.80;;;;;;5055169;28;20385;-66
2022/07/01 07:06:24;;;;;;;21.95;3.92;;;10.40;98.10;;;;;;5066524;28;20031;-66
2022/07/01 07:08:51;;;;;;;9.68;3.22;;;10.40;98.00;;;;;;5061914;28;20100;-66
2022/07/01 07:11:19;;;;;;;8.68;2.90;;;10.40;98.10;;;;;;5057105;28;20120;-66
2022/07/01 07:13:47;;;;;;;8.05;2.50;;;10.40;98.20;;;;;;5041302;28;20024;-66
2022/07/01 07:16:14;;;;;;;4.90;2.88;;;10.40;98.20;;;;;;5039026;28;20187;-66
2022/07/01 07:18:44;;;;;;;9.05;3.05;;;10.40;98.20;;;;;;5045282;28;20026;-66
2022/07/01 07:21:12;;;;;;;5.78;3.08;;;10.40;98.10;;;;;;5041182;28;20037;-66
2022/07/01 07:23:39;;;;;;;4.95;2.60;;;10.40;98.10;;;;;;5042324;28;20021;-66
2022/07/01 07:26:06;;;;;;;4.50;2.25;;;10.40;98.20;;;;;;5045391;28;20020;-66
2022/07/01 07:28:33;;;;;;;6.47;2.47;;;10.40;98.20;;;;;;5052520;28;20017;-66
2022/07/01 07:31:01;;;;;;;5.05;2.20;;;10.40;98.20;;;;;;5038970;28;20029;-66
2022/07/01 07:33:31;;;;;;;4.20;2.30;;;10.40;98.10;;;;;;5048912;28;20099;-64
2022/07/01 07:35:59;;;;;;;6.28;2.45;;;10.40;98.10;;;;;;5044570;28;20033;-64
2022/07/01 07:38:27;;;;;;;4.32;2.33;;;10.40;98.10;;;;;;5039324;28;20021;-64
2022/07/01 07:40:54;;;;;;;6.30;2.10;;;10.40;98.10;;;;;;5051793;28;20040;-64
2022/07/01 07:43:21;;;;;;;2.38;1.60;;;10.40;98.10;;;;;;5037334;28;20053;-64
2022/07/01 07:45:49;;;;;;;5.82;2.22;;;10.40;98.10;;;;;;5035155;28;20027;-64
2022/07/01 07:48:16;;;;;;;4.03;2.08;;;10.40;98.00;;;;;;5031579;28;20494;-64
2022/07/01 07:50:43;;;;;;;4.82;2.10;;;10.40;98.20;;;;;;5032515;28;20034;-63
2022/07/01 07:53:11;;;;;;;7.38;2.10;;;10.40;98.10;;;;;;5033751;28;20049;-63
2022/07/01 07:55:39;;;;;;;4.25;2.08;;;10.40;98.10;;;;;;5034304;28;20017;-63
2022/07/01 07:58:06;;;;;;;3.47;1.80;;;10.40;98.10;;;;;;5032240;28;20029;-63
2022/07/01 08:00:37;;;;;;;4.85;2.05;;;10.40;98.10;;;;;;5033638;28;20029;-63
2022/07/01 08:03:05;;;;;;;2.70;1.67;;;10.40;98.10;;;;;;5036048;28;20025;-63
2022/07/01 08:05:32;;;;;;;5.45;2.45;;;10.40;98.10;;;;;;5043831;28;20698;-64
2022/07/01 08:07:59;;;;;;;5.72;1.70;;;10.40;98.00;;;;;;5035728;28;20096;-64
2022/07/01 08:10:26;;;;;;;2.70;1.77;;;10.30;97.90;;;;;;5037122;28;20074;-64
2022/07/01 08:12:57;;;;;;;4.13;1.73;;;10.30;98.00;;;;;;5043993;28;20033;-64
2022/07/01 08:15:25;;;;;;;3.35;1.95;;;10.30;98.10;;;;;;5051357;28;20115;-63
2022/07/01 08:17:52;;;;;;;2.70;1.50;;;10.30;98.20;;;;;;5044049;28;20095;-64
2022/07/01 08:20:19;;;;;;;3.92;2.17;;;10.30;98.20;;;;;;5048662;28;20040;-65
2022/07/01 08:22:47;;;;;;;4.75;2.10;;;10.30;98.30;;;;;;5050621;28;20029;-64
2022/07/01 08:25:14;;;;;;;4.70;2.40;;;10.30;98.20;;;;;;5044234;28;20025;-64
2022/07/01 08:27:42;;;;;;;2.63;1.75;;;10.30;98.30;;;;;;5032318;28;20029;-64
2022/07/01 08:30:09;;;;;;;4.20;1.88;;;10.30;98.30;;;;;;5042726;28;20032;-63
2022/07/01 08:32:37;;;;;;;5.68;1.90;;;10.30;98.30;;;;;;5048335;28;20023;-64
2022/07/01 08:35:04;;;;;;;4.93;2.00;;;10.30;98.30;;;;;;5041647;28;20112;-64
2022/07/01 08:37:34;;;;;;;6.75;1.88;;;10.20;98.20;;;;;;5055615;28;20044;-64
2022/07/01 08:40:02;;;;;;;4.05;1.75;;;10.20;98.30;;;;;;5058888;28;20048;-63
2022/07/01 08:42:29;;;;;;;4.63;2.20;;;10.20;98.40;;;;;;5036881;28;20045;-67
2022/07/01 08:44:57;;;;;;;3.55;2.10;;;10.20;98.40;;;;;;5031074;28;20082;-65
2022/07/01 08:47:24;;;;;;;3.25;1.95;;;10.20;98.70;;;;;;5039547;28;20635;-70
2022/07/01 08:49:51;;;;;;;4.53;2.13;;;10.20;98.70;;;;;;5047136;28;20025;-64
2022/07/01 08:52:19;;;;;;;2.28;1.60;;;10.20;98.60;;;;;;5047663;28;20029;-69
2022/07/01 08:54:46;;;;;;;3.28;2.17;;;10.20;98.70;;;;;;5046859;28;20036;-69
2022/07/01 08:57:20;;;;;;;6.43;2.30;;;10.20;98.60;;;;;;5048215;28;20435;-68
2022/07/01 09:00:03;;;;;;;3.20;2.17;;;10.20;98.60;;;;;;5037106;28;20132;-69
2022/07/01 09:02:54;;;;;;;3.65;2.15;;;10.20;98.70;;;;;;5031933;28;20045;-70
2022/07/01 09:05:22;;;;;;;4.53;2.35;;;10.30;98.70;;;;;;5037167;28;20087;-69
2022/07/01 09:08:01;;;;;;;4.28;2.65;;;10.30;98.80;;;;;;5030705;28;20029;-68
2022/07/01 09:10:31;;;;;;;5.88;1.98;;;10.30;98.60;;;;;;5045248;28;20047;-69
2022/07/01 09:13:03;;;;;;;3.65;2.30;;;10.30;98.60;;;;;;5037655;28;20484;-69
2022/07/01 09:15:32;;;;;;;4.65;2.53;;;10.30;98.40;;;;;;5032824;28;20028;-68
2022/07/01 09:18:11;;;;;;;6.82;2.88;;;10.30;98.40;;;;;;5048728;28;20126;-70
2022/07/01 09:20:43;;;;;;;7.00;2.60;;;10.30;98.50;;;;;;5040400;28;20063;-70
2022/07/01 09:23:15;;;;;;;3.45;2.13;;;10.30;98.60;;;;;;5029509;28;20083;-71
2022/07/01 09:25:45;;;;;;;5.22;2.58;;;10.30;98.70;;;;;;5034123;28;20478;-68
2022/07/01 09:28:18;;;;;;;3.58;2.90;;;10.30;98.70;;;;;;5031006;28;20025;-69
2022/07/01 09:30:48;;;;;;;4.43;3.03;;;10.40;98.70;;;;;;5040685;28;20425;-68
2022/07/01 09:33:27;;;;;;;4.60;2.55;;;10.40;98.70;;;;;;5048480;28;20024;-68
2022/07/01 09:35:55;;;;;;;4.90;2.72;;;10.30;98.70;;;;;;5045238;28;20029;-68
2022/07/01 09:38:24;;;;;;;4.90;2.85;;;10.30;98.60;;;;;;5048747;28;20107;-69
2022/07/01 09:41:03;;;;;;;5.13;2.45;;;10.30;98.70;;;;;;5042008;28;20025;-71
2022/07/01 09:43:35;;;;;;;3.50;2.60;;;10.30;98.60;;;;;;5027013;28;20393;-71
2022/07/01 09:46:09;;;;;;;3.50;2.50;;;10.30;98.80;;;;;;5044333;28;20028;-69
2022/07/01 09:48:36;;;;;;;7.57;3.60;;;10.30;98.80;;;;;;5048401;28;20033;-71
2022/07/01 09:51:09;;;;;;;4.32;3.10;;;10.40;98.80;;;;;;5043352;28;20686;-70
2022/07/01 09:53:36;;;;;;;4.70;3.22;;;10.40;98.80;;;;;;5048162;28;20111;-68
2022/07/01 09:56:04;;;;;;;5.43;2.65;;;10.30;98.70;;;;;;5047729;28;20025;-69
2022/07/01 09:58:35;;;;;;;8.45;2.97;;;10.30;98.70;;;;;;5047891;28;20036;-69
2022/07/01 10:01:03;;;;;;;6.10;3.70;;;10.30;98.80;;;;;;5045310;28;20397;-69
2022/07/01 10:03:32;;;;;;;3.67;2.80;;;10.40;98.90;;;;;;5044400;28;20477;-69
2022/07/01 10:06:10;;;;;;;3.78;2.58;;;10.30;98.80;;;;;;5047659;28;20040;-70
2022/07/01 10:08:51;;;;;;;3.65;2.65;;;10.30;98.80;;;;;;5047163;28;20581;-70
2022/07/01 10:11:39;;;;;;;5.70;3.25;;;10.30;98.80;;;;;;5027671;28;20029;-69
2022/07/01 10:14:08;;;;;;;4.78;3.20;;;10.30;98.90;;;;;;5040052;28;20025;-70
2022/07/01 10:16:38;;;;;;;5.30;3.20;;;10.30;99.00;;;;;;5046473;28;20048;-69
2022/07/01 10:19:27;;;;;;;4.72;3.05;;;10.40;99.10;;;;;;5042563;28;20116;-70
2022/07/01 10:21:57;;;;;;;5.65;2.95;;;10.30;98.80;;;;;;5028881;28;20044;-72
2022/07/01 10:24:26;;;;;;;6.05;3.53;;;10.30;98.90;;;;;;5029051;28;20049;-69
2022/07/01 10:27:13;;;;;;;6.35;3.90;;;10.30;98.70;;;;;;5036767;28;20112;-69
2022/07/01 10:29:40;;;;;;;8.15;3.25;;;10.30;99.00;;;;;;5037100;28;20033;-70
2022/07/01 10:32:23;;;;;;;6.57;3.20;;;10.40;99.00;;;;;;5032472;28;20036;-70
2022/07/01 10:34:50;;;;;;;3.85;2.80;;;10.40;99.00;;;;;;5032964;28;20086;-69
2022/07/01 10:37:18;;;;;;;5.15;3.45;;;10.40;99.00;;;;;;5047594;28;20116;-70
2022/07/01 10:40:01;;;;;;;5.80;3.35;;;10.40;98.90;;;;;;5044218;28;20112;-67
2022/07/01 10:42:54;;;;;;;6.20;2.70;;;10.40;98.90;;;;;;5047267;28;20137;-68
2022/07/01 10:45:22;;;;;;;3.40;2.30;;;10.40;98.90;;;;;;5034815;28;20032;-72
2022/07/01 10:48:09;;;;;;;4.07;2.15;;;10.40;98.90;;;;;;5046933;28;20028;-70
2022/07/01 10:50:39;;;;;;;5.03;2.40;;;10.40;98.90;;;;;;5045275;28;20855;-71
2022/07/01 10:53:06;;;;;;;3.40;1.70;;;10.40;98.90;;;;;;5046275;28;20025;-71
2022/07/01 10:56:08;;;;;;;2.35;1.67;;;10.40;98.90;;;;;;5042461;28;20021;-70
2022/07/01 10:59:02;;;;;;;2.63;1.33;;;10.40;98.90;;;;;;5029225;28;20033;-68
2022/07/01 11:01:31;;;;;;;4.30;1.58;;;10.40;98.90;;;;;;5044049;28;20112;-67
2022/07/01 11:03:59;;;;;;;2.50;1.20;;;10.40;98.90;;;;;;5026387;28;20448;-68
2022/07/01 11:06:27;;;;;;;2.80;1.38;;;10.40;98.90;;;;;;5043235;28;20032;-69
2022/07/01 11:08:55;;;;;;;4.65;1.60;;;10.40;98.90;;;;;;5050079;28;20029;-68
2022/07/01 11:11:22;;;;;;;4.40;1.25;;;10.40;98.90;;;;;;5035361;28;20025;-72
2022/07/01 11:13:49;;;;;;;2.00;1.40;;;10.40;98.90;;;;;;5035979;28;20029;-70
2022/07/01 11:16:17;;;;;;;2.80;1.27;;;10.40;99.00;;;;;;5037662;28;20067;-69
2022/07/01 11:18:45;;;;;;;1.25;0.98;;;10.40;99.00;;;;;;5037133;28;20017;-71
2022/07/01 11:21:12;;;;;;;2.03;1.25;;;10.40;99.00;;;;;;5037426;28;20024;-70
2022/07/01 11:23:39;;;;;;;2.53;1.52;;;10.30;99.00;;;;;;5040270;28;20091;-70
2022/07/01 11:26:07;;;;;;;2.78;1.40;;;10.40;99.00;;;;;;5040504;28;20021;-70
2022/07/01 11:28:40;;;;;;;1.45;1.00;;;10.40;99.00;;;;;;5047537;28;20535;-70
2022/07/01 11:31:08;;;;;;;1.08;0.77;;;10.40;99.00;;;;;;5042130;28;20041;-69
2022/07/01 11:33:39;;;;;;;2.83;1.17;;;10.40;99.00;;;;;;5043431;28;20025;-70
2022/07/01 11:41:37;;;;;;;2.85;1.23;;;10.40;99.00;;;;;;5041841;28;20052;-70
2022/07/01 11:44:07;;;;;;;2.10;1.50;;;10.40;99.00;;;;;;5040601;28;20465;-69
2022/07/01 11:46:34;;;;;;;3.08;1.27;;;10.40;99.30;;;;;;5043264;28;20098;-70
2022/07/01 11:49:11;;;;;;;1.70;1.05;;;10.40;99.00;;;;;;5051054;28;20032;-71
2022/07/01 11:51:38;;;;;;;2.88;1.05;;;10.40;99.00;;;;;;5052609;28;20024;-71
2022/07/01 11:54:05;;;;;;;1.48;1.00;;;10.40;99.00;;;;;;5051927;28;20580;-69
2022/07/01 11:56:39;;;;;;;1.77;0.95;;;10.40;99.00;;;;;;5052436;28;20493;-71
2022/07/01 11:59:06;;;;;;;4.83;1.10;;;10.40;99.00;;;;;;5048108;28;20025;-71
2022/07/01 12:01:36;;;;;;;3.38;1.40;;;10.40;99.00;;;;;;5033078;28;20048;-69
2022/07/01 12:04:06;;;;;;;2.05;1.27;;;10.40;99.00;;;;;;5033462;28;20385;-71
2022/07/01 12:06:35;;;;;;;1.63;1.10;;;10.30;98.90;;;;;;5048893;28;20601;-71
2022/07/01 12:09:03;;;;;;;1.35;0.85;;;10.30;98.90;;;;;;5041749;28;20029;-69
2022/07/01 12:11:31;;;;;;;2.50;1.10;;;10.30;99.00;;;;;;5039256;28;20064;-71
2022/07/01 12:13:58;;;;;;;1.85;1.10;;;10.30;99.00;;;;;;5041253;28;20473;-70
2022/07/01 12:16:26;;;;;;;2.63;1.20;;;10.30;99.00;;;;;;5041003;28;20577;-72
2022/07/01 12:18:53;;;;;;;2.40;1.40;;;10.30;98.90;;;;;;5039828;28;20033;-70
2022/07/01 12:21:22;;;;;;;1.60;1.13;;;10.30;98.90;;;;;;5042537;28;20457;-68
2022/07/01 12:24:07;;;;;;;2.05;1.50;;;10.30;98.90;;;;;;5041239;28;20025;-74
2022/07/01 12:26:46;;;;;;;2.50;1.60;;;10.20;98.90;;;;;;5041820;28;20033;-72
2022/07/01 12:29:13;;;;;;;2.28;1.45;;;10.20;98.90;;;;;;5040951;28;20013;-68
2022/07/01 12:31:53;;;;;;;6.65;1.85;;;10.20;98.90;;;;;;5042785;28;20035;-70
2022/07/01 12:34:21;;;;;;;2.42;1.20;;;10.20;98.90;;;;;;5036897;28;20082;-73
2022/07/01 12:36:50;;;;;;;2.35;1.42;;;10.20;98.90;;;;;;5049022;28;20033;-70
2022/07/01 12:39:17;;;;;;;2.65;1.80;;;10.20;98.90;;;;;;5042194;28;20527;-70
2022/07/01 12:41:51;;;;;;;6.20;1.90;;;10.20;98.90;;;;;;5042302;28;20580;-70
2022/07/01 12:44:25;;;;;;;2.53;1.67;;;10.10;98.90;;;;;;5049505;28;20104;-70
2022/07/01 12:46:53;;;;;;;2.47;1.67;;;10.10;98.90;;;;;;5048979;28;20053;-70
2022/07/01 12:49:22;;;;;;;2.15;1.50;;;10.00;98.80;;;;;;5046915;28;20025;-69
2022/07/01 12:51:51;;;;;;;3.17;1.77;;;10.00;98.90;;;;;;5049208;28;20035;-68
2022/07/01 12:54:39;;;;;;;1.98;1.23;;;10.00;98.90;;;;;;5048761;28;20025;-70
2022/07/01 12:57:06;;;;;;;2.10;1.30;;;10.00;99.00;;;;;;5042523;28;20485;-71
2022/07/01 12:59:33;;;;;;;3.05;1.70;;;10.00;99.10;;;;;;5038485;28;20429;-71
2022/07/01 13:02:01;;;;;;;4.15;1.92;;;10.00;99.10;;;;;;5040019;28;20513;-73
2022/07/01 13:04:29;;;;;;;2.70;1.70;;;10.00;99.20;;;;;;5040911;28;20067;-73
2022/07/01 13:06:56;;;;;;;3.20;1.67;;;10.00;99.20;;;;;;5036532;28;20112;-72
2022/07/01 13:09:24;;;;;;;4.70;2.28;;;10.00;99.10;;;;;;5047716;28;20107;-70